Time;durP1;ratioP1;P1;durP2;ratioP2;P2;SDS_P1;SDS_P2;PMS_P1;PMS_P2;Temp;Humidity;BMP_temperature;BMP_pressure;BME280_temperature;BME280_humidity;BME280_pressure;Samples;Min_cycle;Max_cycle;Signal;HPM_P1;HPM_P2
2023/01/06 14:25:07;;;;;;;21.85;12.70;;;;;;;4.30;100.00;100581.25;5065666;27;2285528;-77
2023/01/06 14:27:48;;;;;;;21.70;10.65;;;;;;;4.47;100.00;100579.97;5102853;28;20069;-75
2023/01/06 14:30:28;;;;;;;24.52;12.43;;;;;;;4.73;100.00;100577.28;5100047;28;20028;-76
2023/01/06 14:33:07;;;;;;;28.50;11.88;;;;;;;4.91;100.00;100566.22;5119315;28;20373;-76
2023/01/06 14:35:43;;;;;;;27.90;14.55;;;;;;;5.08;100.00;100547.16;5111750;28;20155;-76
2023/01/06 14:38:34;;;;;;;29.48;13.45;;;;;;;5.27;100.00;100551.84;5093927;28;20036;-77
2023/01/06 14:41:06;;;;;;;31.05;12.38;;;;;;;5.44;100.00;100553.34;5111571;28;20035;-75
2023/01/06 14:43:41;;;;;;;25.50;12.13;;;;;;;5.55;100.00;100555.88;5093524;28;20080;-78
2023/01/06 14:46:18;;;;;;;26.85;11.77;;;;;;;5.68;100.00;100553.81;5093795;28;20035;-77
2023/01/06 14:48:49;;;;;;;30.50;12.10;;;;;;;5.80;100.00;100556.66;5079076;28;20151;-76
2023/01/06 14:51:19;;;;;;;22.23;12.27;;;;;;;5.87;100.00;100561.31;5092679;28;20521;-78
2023/01/06 14:53:50;;;;;;;24.80;11.18;;;;;;;5.98;100.00;100561.75;5093058;28;20028;-78
2023/01/06 14:56:21;;;;;;;22.30;11.43;;;;;;;6.07;100.00;100570.38;5076304;28;20039;-77
2023/01/06 14:58:48;;;;;;;26.67;11.85;;;;;;;6.18;100.00;100559.47;5111225;28;20034;-75
2023/01/06 15:01:25;;;;;;;22.33;11.70;;;;;;;6.29;100.00;100573.25;5110696;28;20044;-76
2023/01/06 15:04:00;;;;;;;22.52;11.55;;;;;;;6.39;100.00;100566.47;5082358;28;20025;-75
2023/01/06 15:06:27;;;;;;;26.38;12.13;;;;;;;6.41;100.00;100566.00;5094647;28;20107;-73
2023/01/06 15:08:56;;;;;;;23.77;12.07;;;;;;;6.40;100.00;100565.22;5067732;28;20107;-73
2023/01/06 15:11:38;;;;;;;23.52;13.10;;;;;;;6.35;100.00;100560.13;5086547;28;20040;-74
2023/01/06 15:14:05;;;;;;;22.33;13.02;;;;;;;6.43;100.00;100563.53;5086695;28;20470;-75
2023/01/06 15:16:35;;;;;;;25.67;13.95;;;;;;;6.51;100.00;100559.97;5096937;28;20036;-74
2023/01/06 15:19:06;;;;;;;24.67;14.18;;;;;;;6.61;100.00;100558.81;5100164;28;20038;-75
2023/01/06 15:21:38;;;;;;;27.02;14.45;;;;;;;6.72;100.00;100563.31;5081607;28;20093;-75
2023/01/06 15:24:26;;;;;;;26.90;14.65;;;;;;;6.81;100.00;100569.88;5069689;28;20090;-78
2023/01/06 15:26:55;;;;;;;24.42;13.52;;;;;;;6.88;100.00;100574.50;5094337;28;20047;-77
2023/01/06 15:29:23;;;;;;;26.08;13.70;;;;;;;6.93;100.00;100569.00;5076419;28;20097;-79
2023/01/06 15:31:52;;;;;;;29.17;14.23;;;;;;;6.98;100.00;100564.78;5074883;28;20032;-77
2023/01/06 15:34:45;;;;;;;25.70;13.68;;;;;;;7.00;100.00;100576.47;5070390;28;20041;-79
2023/01/06 15:37:21;;;;;;;28.13;13.77;;;;;;;6.87;100.00;100559.50;5058635;28;20128;-78
2023/01/06 15:39:54;;;;;;;26.90;15.48;;;;;;;7.00;100.00;100573.63;5060150;28;20069;-76
2023/01/06 15:42:24;;;;;;;27.70;15.75;;;;;;;6.93;100.00;100563.31;5060948;28;20032;-78
2023/01/06 15:45:00;;;;;;;30.58;14.65;;;;;;;6.98;100.00;100579.78;5042313;28;20140;-79
2023/01/06 15:47:39;;;;;;;26.23;14.60;;;;;;;6.96;100.00;100570.94;5058507;28;20028;-77
2023/01/06 15:50:07;;;;;;;31.25;14.82;;;;;;;6.96;100.00;100576.63;5058132;28;20025;-82
2023/01/06 15:52:58;;;;;;;28.70;14.82;;;;;;;7.07;100.00;100581.91;5059005;28;20024;-78
2023/01/06 15:55:34;;;;;;;38.25;17.27;;;;;;;7.03;100.00;100572.69;5047508;28;20393;-78
2023/01/06 15:58:21;;;;;;;26.00;14.55;;;;;;;7.01;100.00;100578.88;5057303;28;20028;-77
2023/01/06 16:01:09;;;;;;;26.77;14.88;;;;;;;7.03;100.00;100573.50;5040292;28;20367;-78
2023/01/06 16:03:37;;;;;;;22.50;14.27;;;;;;;7.07;100.00;100581.91;5056183;28;20382;-77
2023/01/06 16:06:10;;;;;;;24.60;13.10;;;;;;;7.05;100.00;100587.25;5039724;28;20040;-79
2023/01/06 16:08:36;;;;;;;21.42;12.57;;;;;;;7.09;100.00;100597.22;5070651;28;20040;-79
2023/01/06 16:11:54;;;;;;;26.45;11.88;;;;;;;7.16;100.00;100586.88;5058745;28;20036;-81
2023/01/06 16:14:04;;;;;;;22.30;12.15;;;;;;;7.15;100.00;100579.59;5075831;28;20047;-78
2023/01/06 16:16:33;;;;;;;16.85;10.63;;;;;;;7.12;100.00;100575.63;5074762;28;20024;-80
2023/01/06 16:19:07;;;;;;;24.10;11.60;;;;;;;7.09;100.00;100583.03;5074848;28;20044;-77
2023/01/06 16:21:34;;;;;;;21.52;11.23;;;;;;;7.14;100.00;100584.47;5076237;28;20060;-75
2023/01/06 16:24:05;;;;;;;22.95;12.43;;;;;;;7.18;100.00;100578.66;5054301;28;20401;-76
2023/01/06 16:26:33;;;;;;;20.80;12.68;;;;;;;7.18;100.00;100587.97;5037820;28;20035;-75
2023/01/06 16:29:01;;;;;;;26.40;13.70;;;;;;;7.19;100.00;100585.94;5037536;28;20086;-75
2023/01/06 16:31:44;;;;;;;22.63;13.82;;;;;;;7.23;100.00;100578.84;5054045;28;20024;-76
2023/01/06 16:34:23;;;;;;;24.38;14.02;;;;;;;7.24;100.00;100582.50;5054759;28;20094;-77
2023/01/06 16:37:07;;;;;;;26.65;14.68;;;;;;;7.22;100.00;100582.97;5055086;28;20056;-77
2023/01/06 16:39:32;;;;;;;22.20;12.02;;;;;;;7.25;100.00;100584.09;5054988;28;20036;-76
2023/01/06 16:42:00;;;;;;;25.10;13.98;;;;;;;7.25;100.00;100584.88;5055466;28;20455;-78
2023/01/06 16:44:33;;;;;;;21.67;12.63;;;;;;;7.25;100.00;100584.88;5055113;28;20052;-78
2023/01/06 16:46:59;;;;;;;23.58;12.75;;;;;;;7.30;100.00;100577.81;5036399;28;20041;-81
2023/01/06 16:49:27;;;;;;;25.88;13.32;;;;;;;7.34;100.00;100576.41;5054084;28;20037;-77
2023/01/06 16:51:53;;;;;;;21.95;12.05;;;;;;;7.38;100.00;100581.94;5053748;28;20040;-80
2023/01/06 16:54:19;;;;;;;23.40;12.38;;;;;;;7.41;100.00;100584.69;5036634;28;20033;-78
2023/01/06 16:56:46;;;;;;;16.00;11.13;;;;;;;7.47;100.00;100591.31;5051352;28;20194;-79
2023/01/06 16:59:16;;;;;;;21.85;12.10;;;;;;;7.52;100.00;100587.13;5053844;28;20061;-79
2023/01/06 17:01:44;;;;;;;23.33;12.63;;;;;;;7.60;100.00;100593.31;5053187;28;20032;-80
2023/01/06 17:04:13;;;;;;;20.00;11.50;;;;;;;7.66;100.00;100586.56;5062541;28;20044;-79
2023/01/06 17:06:39;;;;;;;18.75;11.13;;;;;;;7.69;100.00;100590.50;5060069;28;20064;-82
2023/01/06 17:09:19;;;;;;;18.92;10.65;;;;;;;7.71;100.00;100594.50;5037157;28;20047;-79
2023/01/06 17:11:54;;;;;;;19.40;10.52;;;;;;;7.75;100.00;100592.28;5054664;28;20047;-80
2023/01/06 17:14:22;;;;;;;17.00;10.25;;;;;;;7.72;100.00;100587.50;5063751;28;20048;-80
2023/01/06 17:16:49;;;;;;;12.57;8.90;;;;;;;7.63;100.00;100586.69;5057067;28;20070;-74
2023/01/06 17:19:25;;;;;;;17.15;9.05;;;;;;;7.48;100.00;100587.22;5052748;28;20045;-77
2023/01/06 17:22:18;;;;;;;17.20;9.63;;;;;;;7.47;100.00;100593.41;5054813;28;20150;-77
2023/01/06 17:24:45;;;;;;;13.50;8.27;;;;;;;7.41;100.00;100601.72;5078783;28;20059;-76
2023/01/06 17:27:22;;;;;;;15.70;8.18;;;;;;;7.44;100.00;100600.00;5093807;28;20044;-72
2023/01/06 17:29:48;;;;;;;12.80;7.88;;;;;;;7.48;100.00;100607.13;5076328;28;20354;-76
2023/01/06 17:32:20;;;;;;;10.15;6.18;;;;;;;7.51;100.00;100599.75;5042159;28;20384;-74
2023/01/06 17:34:47;;;;;;;11.35;6.03;;;;;;;7.54;100.00;100604.50;5075967;28;20031;-73
2023/01/06 17:37:43;;;;;;;16.35;5.53;;;;;;;7.49;100.00;100605.09;5093792;28;20065;-75
2023/01/06 17:40:18;;;;;;;7.97;4.32;;;;;;;7.53;100.00;100615.06;5058079;28;20040;-78
2023/01/06 17:42:47;;;;;;;8.00;4.15;;;;;;;7.58;100.00;100615.72;5070164;28;20447;-76
2023/01/06 17:45:23;;;;;;;9.30;4.60;;;;;;;7.64;100.00;100620.34;5039229;28;20048;-75
2023/01/06 17:47:51;;;;;;;9.10;5.13;;;;;;;7.71;100.00;100620.09;5076411;28;20024;-78
2023/01/06 17:50:31;;;;;;;6.47;3.97;;;;;;;7.75;100.00;100609.34;5021838;28;20046;-78
2023/01/06 17:56:07;;;;;;;7.65;4.78;;;;;;;7.74;100.00;100616.31;5094925;28;20112;-78
2023/01/06 17:58:37;;;;;;;8.10;4.82;;;;;;;7.73;100.00;100619.59;5058271;28;20031;-76
2023/01/06 18:01:05;;;;;;;9.27;4.78;;;;;;;7.75;100.00;100622.78;5058594;28;20113;-77
2023/01/06 18:03:34;;;;;;;9.05;5.00;;;;;;;7.73;100.00;100620.41;5075516;28;20032;-76
2023/01/06 18:06:05;;;;;;;7.45;4.50;;;;;;;7.74;100.00;100619.16;5075941;28;20035;-75
2023/01/06 18:08:47;;;;;;;7.55;4.65;;;;;;;7.78;100.00;100627.53;5094176;28;20038;-78
2023/01/06 18:11:25;;;;;;;5.15;4.30;;;;;;;7.77;100.00;100626.72;5093622;28;20111;-76
2023/01/06 18:13:52;;;;;;;7.55;4.25;;;;;;;7.75;100.00;100629.28;5093558;28;20058;-76
2023/01/06 18:16:30;;;;;;;6.85;3.95;;;;;;;7.77;100.00;100629.56;5089776;28;20111;-78
2023/01/06 18:19:02;;;;;;;7.15;4.20;;;;;;;7.78;100.00;100644.59;5075337;28;20116;-83
2023/01/06 18:21:35;;;;;;;8.00;4.45;;;;;;;7.82;100.00;100637.50;5071972;28;20546;-81
2023/01/06 18:24:25;;;;;;;6.68;4.55;;;;;;;7.86;100.00;100640.25;5071691;28;20053;-82
2023/01/06 18:27:23;;;;;;;10.93;4.75;;;;;;;7.87;100.00;100644.66;5057860;28;20036;-81
2023/01/06 18:29:50;;;;;;;9.63;5.53;;;;;;;7.84;100.00;100652.06;5053103;28;20041;-77
2023/01/06 18:32:26;;;;;;;9.63;4.80;;;;;;;7.80;100.00;100647.78;5054051;28;20029;-78
2023/01/06 18:35:26;;;;;;;10.73;6.07;;;;;;;7.82;100.00;100659.47;5054626;28;20029;-82
2023/01/06 18:37:52;;;;;;;10.63;6.35;;;;;;;7.81;100.00;100664.41;5053654;28;20112;-79
2023/01/06 18:40:23;;;;;;;8.55;5.25;;;;;;;7.86;100.00;100658.09;5036110;28;20064;-77
2023/01/06 18:42:49;;;;;;;10.07;6.25;;;;;;;7.91;100.00;100651.81;5054844;28;20037;-78
2023/01/06 18:45:23;;;;;;;9.50;5.25;;;;;;;7.93;100.00;100657.81;5063578;28;20024;-75
2023/01/06 18:47:54;;;;;;;11.40;5.55;;;;;;;7.98;100.00;100648.66;5057425;28;20036;-77
2023/01/06 18:50:41;;;;;;;10.55;4.95;;;;;;;7.94;100.00;100658.59;5070609;28;20390;-80
2023/01/06 18:53:26;;;;;;;8.63;4.90;;;;;;;7.94;100.00;100658.59;5073510;28;20024;-80
2023/01/06 18:56:19;;;;;;;8.23;4.90;;;;;;;8.01;100.00;100660.38;5072387;28;20020;-79
2023/01/06 18:58:51;;;;;;;5.95;3.92;;;;;;;7.98;100.00;100657.22;5074215;28;20084;-79
2023/01/06 19:01:25;;;;;;;6.90;4.43;;;;;;;7.97;100.00;100660.50;5072504;28;20120;-80
2023/01/06 19:04:04;;;;;;;6.65;4.30;;;;;;;7.95;100.00;100658.16;5073891;28;20016;-80
2023/01/06 19:06:36;;;;;;;7.60;3.95;;;;;;;8.01;100.00;100657.53;5071090;28;20028;-82
2023/01/06 19:09:18;;;;;;;7.32;3.75;;;;;;;7.96;100.00;100664.63;5055762;28;20036;-81
2023/01/06 19:11:44;;;;;;;4.13;3.60;;;;;;;8.04;100.00;100651.69;5075557;28;20430;-79
2023/01/06 19:14:19;;;;;;;6.03;3.63;;;;;;;7.98;100.00;100651.50;5075948;28;20473;-81
2023/01/06 19:16:53;;;;;;;4.60;3.60;;;;;;;8.02;100.00;100651.38;5077515;28;20051;-80
2023/01/06 19:19:39;;;;;;;7.53;4.30;;;;;;;8.02;100.00;100654.22;5077207;28;20059;-76
2023/01/06 19:22:25;;;;;;;4.72;3.15;;;;;;;7.99;100.00;100660.84;5077597;28;20048;-77
2023/01/06 19:25:24;;;;;;;6.55;3.67;;;;;;;8.01;100.00;100660.38;5106210;28;20091;-74
2023/01/06 19:27:58;;;;;;;6.97;3.47;;;;;;;7.94;100.00;100655.75;5106217;28;20120;-77
2023/01/06 19:30:46;;;;;;;4.20;2.88;;;;;;;7.86;100.00;100666.63;5089395;28;20032;-79
2023/01/06 19:33:30;;;;;;;6.28;3.13;;;;;;;7.91;100.00;100682.31;5092011;28;20043;-79
2023/01/06 19:36:04;;;;;;;7.38;3.65;;;;;;;7.90;100.00;100686.41;5108020;28;20028;-76
2023/01/06 19:38:37;;;;;;;6.78;3.83;;;;;;;7.93;100.00;100674.09;5073633;28;20119;-76
2023/01/06 19:41:31;;;;;;;5.40;3.38;;;;;;;7.95;100.00;100674.44;5074487;28;20031;-76
2023/01/06 19:44:31;;;;;;;7.95;4.20;;;;;;;7.91;100.00;100674.56;5077364;28;20047;-78
2023/01/06 19:46:59;;;;;;;6.60;3.45;;;;;;;7.87;100.00;100673.88;5059765;28;20032;-76
2023/01/06 19:49:38;;;;;;;7.85;3.55;;;;;;;7.74;100.00;100678.09;5066866;28;20039;-76
2023/01/06 19:52:28;;;;;;;4.18;3.15;;;;;;;7.71;100.00;100673.34;5076692;28;20024;-76
2023/01/06 19:54:54;;;;;;;6.57;3.60;;;;;;;7.71;100.00;100679.81;5080845;28;20133;-77
2023/01/06 19:57:29;;;;;;;3.95;3.00;;;;;;;7.77;100.00;100691.38;5062010;28;20386;-77
2023/01/06 19:59:57;;;;;;;4.75;3.38;;;;;;;7.83;100.00;100692.34;5062720;28;20040;-78
2023/01/06 20:02:33;;;;;;;4.32;2.92;;;;;;;7.93;100.00;100688.31;5061362;28;20028;-77
2023/01/06 20:05:01;;;;;;;6.05;3.17;;;;;;;7.93;100.00;100706.19;5077185;28;20028;-73
2023/01/06 20:07:28;;;;;;;6.47;3.63;;;;;;;7.98;100.00;100701.94;5059699;28;20044;-77
2023/01/06 20:09:55;;;;;;;6.57;3.30;;;;;;;8.01;100.00;100698.19;5060112;28;20020;-80
2023/01/06 20:12:22;;;;;;;4.85;2.88;;;;;;;8.03;100.00;100706.22;5077729;28;20410;-76
2023/01/06 20:14:47;;;;;;;7.13;3.28;;;;;;;8.00;100.00;100699.44;5077554;28;20107;-76
2023/01/06 20:17:15;;;;;;;5.18;3.42;;;;;;;7.96;100.00;100704.47;5075311;28;20078;-76
2023/01/06 20:19:41;;;;;;;5.72;3.50;;;;;;;7.97;100.00;100712.53;5072539;28;20028;-78
2023/01/06 20:22:08;;;;;;;4.38;3.25;;;;;;;7.92;100.00;100713.13;5075263;28;20433;-77
2023/01/06 20:24:34;;;;;;;5.13;3.30;;;;;;;7.82;100.00;100697.25;5041788;28;20047;-79
2023/01/06 20:27:01;;;;;;;5.85;3.28;;;;;;;7.89;100.00;100711.22;5076934;28;20016;-81
2023/01/06 20:29:26;;;;;;;6.85;3.45;;;;;;;7.80;100.00;100714.00;5058031;28;20020;-79
2023/01/06 20:31:52;;;;;;;5.88;3.22;;;;;;;7.81;100.00;100724.13;5041207;28;20081;-81
2023/01/06 20:34:18;;;;;;;6.35;3.50;;;;;;;7.76;100.00;100719.03;5057126;28;20043;-81
2023/01/06 20:36:44;;;;;;;6.30;3.42;;;;;;;7.63;100.00;100715.44;5075956;28;20108;-81
2023/01/06 20:39:13;;;;;;;5.70;3.67;;;;;;;7.77;100.00;100731.97;5075257;28;20124;-81
2023/01/06 20:41:41;;;;;;;8.23;3.97;;;;;;;7.62;100.00;100716.69;5041947;28;20393;-81
2023/01/06 20:44:06;;;;;;;5.18;3.63;;;;;;;7.72;100.00;100738.28;5075731;28;20025;-82
2023/01/06 20:46:32;;;;;;;5.88;3.53;;;;;;;7.71;100.00;100744.44;5040719;28;20097;-82
2023/01/06 20:48:58;;;;;;;6.22;3.67;;;;;;;7.63;100.00;100737.41;5075552;28;20111;-83
2023/01/06 20:51:27;;;;;;;6.03;3.50;;;;;;;7.38;100.00;100716.34;5057881;28;20024;-82
2023/01/06 20:53:53;;;;;;;5.88;3.75;;;;;;;7.43;100.00;100737.72;5057163;28;20509;-81
2023/01/06 20:56:20;;;;;;;6.53;3.55;;;;;;;7.43;100.00;100738.50;5050080;28;20032;-80
2023/01/06 20:58:45;;;;;;;4.38;3.15;;;;;;;7.47;100.00;100746.94;5094886;28;20024;-82
2023/01/06 21:01:11;;;;;;;5.72;3.88;;;;;;;7.37;100.00;100746.03;5076751;28;20164;-81
2023/01/06 21:03:38;;;;;;;7.30;3.78;;;;;;;7.28;100.00;100748.78;5056410;28;20028;-81
2023/01/06 21:06:05;;;;;;;5.25;3.47;;;;;;;7.29;100.00;100764.59;5074275;28;20245;-80
2023/01/06 21:08:30;;;;;;;6.88;3.70;;;;;;;7.29;100.00;100756.06;5068437;28;20101;-78
2023/01/06 21:10:56;;;;;;;6.13;3.60;;;;;;;7.17;100.00;100754.09;5051646;28;20064;-81
2023/01/06 21:13:24;;;;;;;5.20;3.35;;;;;;;6.93;100.00;100730.91;5048867;28;20024;-80
2023/01/06 21:15:51;;;;;;;4.55;2.85;;;;;;;7.15;100.00;100762.25;5081511;28;20035;-81
2023/01/06 21:18:17;;;;;;;5.13;3.15;;;;;;;7.12;100.00;100736.81;5062952;28;20036;-81
2023/01/06 21:20:48;;;;;;;4.13;3.22;;;;;;;7.46;100.00;100776.63;5072893;28;20048;-80
2023/01/06 21:23:17;;;;;;;;;;;;;;;7.46;100.00;100768.09;5074107;28;20060;-81
2023/01/06 21:25:45;;;;;;;6.28;3.25;;;;;;;7.53;100.00;100767.81;5056041;28;20384;-81
2023/01/06 21:28:12;;;;;;;4.60;3.15;;;;;;;7.64;100.00;100784.50;5056485;28;20029;-81
2023/01/06 21:30:40;;;;;;;5.65;3.60;;;;;;;7.58;100.00;100769.28;5073997;28;20097;-81
2023/01/06 21:33:05;;;;;;;3.95;3.05;;;;;;;7.37;100.00;100748.88;5055376;28;20054;-82
2023/01/06 21:35:32;;;;;;;7.82;3.67;;;;;;;7.49;100.00;100761.47;5073630;28;20024;-81
2023/01/06 21:37:57;;;;;;;6.72;3.85;;;;;;;7.41;100.00;100743.88;5055842;28;20038;-81
2023/01/06 21:40:23;;;;;;;5.85;3.30;;;;;;;7.51;100.00;100756.13;5073223;28;20068;-80
2023/01/06 21:43:10;;;;;;;5.63;3.65;;;;;;;7.63;100.00;100780.06;5073599;28;20028;-81
2023/01/06 21:45:39;;;;;;;5.25;3.30;;;;;;;7.58;100.00;100772.91;5073489;28;20036;-81
2023/01/06 21:48:05;;;;;;;5.70;3.65;;;;;;;7.65;100.00;100794.63;5073581;28;20081;-83
2023/01/06 21:50:32;;;;;;;6.20;3.45;;;;;;;7.42;100.00;100771.03;5039123;28;20083;-83
2023/01/06 21:53:05;;;;;;;5.72;3.63;;;;;;;7.54;100.00;100795.81;5056031;28;20028;-82
2023/01/06 21:55:31;;;;;;;8.32;4.15;;;;;;;7.25;100.00;100766.78;5039157;28;20064;-82
2023/01/06 21:58:00;;;;;;;6.85;3.47;;;;;;;7.41;100.00;100792.22;5055328;28;20063;-81
2023/01/06 22:00:26;;;;;;;6.40;4.03;;;;;;;7.20;100.00;100781.56;5058095;28;20089;-80
2023/01/06 22:02:53;;;;;;;9.25;3.65;;;;;;;7.20;100.00;100795.78;5074599;28;20381;-80
2023/01/06 22:05:19;;;;;;;6.38;4.20;;;;;;;7.08;100.00;100786.00;5092826;28;20034;-83
2023/01/06 22:07:49;;;;;;;9.75;3.85;;;;;;;7.11;100.00;100798.53;5075712;28;20478;-81
2023/01/06 22:10:17;;;;;;;5.20;3.53;;;;;;;7.23;100.00;100820.44;5059576;28;20127;-82
2023/01/06 22:12:46;;;;;;;6.72;4.15;;;;;;;7.19;100.00;100831.13;5059082;28;20089;-80
2023/01/06 22:15:12;;;;;;;6.15;3.47;;;;;;;7.15;100.00;100813.41;5068996;28;20115;-80
2023/01/06 22:17:40;;;;;;;7.93;3.60;;;;;;;7.00;100.00;100810.25;5063050;28;20021;-81
2023/01/06 22:20:07;;;;;;;4.05;3.55;;;;;;;6.97;100.00;100813.22;5063689;28;20020;-82
2023/01/06 22:22:34;;;;;;;7.13;3.38;;;;;;;6.89;100.00;100806.16;5085094;28;20048;-81
2023/01/06 22:25:02;;;;;;;6.35;3.92;;;;;;;6.97;100.00;100828.22;5067358;28;20521;-80
2023/01/06 22:27:29;;;;;;;6.20;3.78;;;;;;;6.88;100.00;100822.41;5042925;28;20028;-82
2023/01/06 22:29:56;;;;;;;9.02;4.53;;;;;;;6.86;100.00;100821.28;5080081;28;20040;-83
2023/01/06 22:32:23;;;;;;;7.90;3.67;;;;;;;6.81;100.00;100824.69;5056879;28;20389;-78
2023/01/06 22:34:49;;;;;;;5.78;3.67;;;;;;;6.81;100.00;100827.53;5056345;28;20052;-90
2023/01/06 22:37:15;;;;;;;6.57;3.92;;;;;;;6.79;100.00;100824.34;5038780;28;20449;-81
2023/01/06 22:39:42;;;;;;;7.25;3.80;;;;;;;6.80;100.00;100828.78;5055507;28;20021;-81
2023/01/06 22:42:09;;;;;;;11.13;4.65;;;;;;;6.78;100.00;100834.13;5073428;28;20466;-82
2023/01/06 22:44:34;;;;;;;8.57;4.75;;;;;;;6.78;100.00;100840.56;5073483;28;20020;-80
2023/01/06 22:47:04;;;;;;;7.72;4.28;;;;;;;6.75;100.00;100829.34;5057733;28;20112;-80
2023/01/06 22:49:32;;;;;;;7.45;4.15;;;;;;;6.74;100.00;100833.41;5077826;28;20373;-81
2023/01/06 22:51:58;;;;;;;7.13;3.63;;;;;;;6.70;100.00;100852.63;5077305;28;20058;-80
2023/01/06 22:54:24;;;;;;;5.70;4.15;;;;;;;6.64;100.00;100853.19;5076780;28;20111;-81
2023/01/06 22:56:50;;;;;;;7.78;4.60;;;;;;;6.63;100.00;100857.25;5075276;28;20167;-81
2023/01/06 22:59:17;;;;;;;9.35;5.10;;;;;;;6.62;100.00;100852.84;5059286;28;20157;-78
2023/01/06 23:01:44;;;;;;;9.88;6.15;;;;;;;6.60;100.00;100855.34;5059183;28;20103;-81
2023/01/06 23:04:13;;;;;;;11.98;6.22;;;;;;;6.55;100.00;100849.41;5058955;28;20044;-82
2023/01/06 23:06:40;;;;;;;10.52;6.20;;;;;;;6.49;100.00;100860.53;5077170;28;20028;-81
2023/01/06 23:09:07;;;;;;;10.52;5.85;;;;;;;6.44;100.00;100861.09;5076838;28;20350;-80
2023/01/06 23:11:40;;;;;;;12.40;6.00;;;;;;;6.44;100.00;100861.09;5042351;28;20428;-81
2023/01/06 23:14:05;;;;;;;11.63;6.03;;;;;;;6.44;100.00;100865.97;5059809;28;20477;-81
2023/01/06 23:16:33;;;;;;;10.52;5.30;;;;;;;6.45;100.00;100865.53;5042192;28;20180;-81
2023/01/06 23:18:59;;;;;;;10.43;5.78;;;;;;;6.39;100.00;100858.81;5041661;28;20023;-81
2023/01/06 23:21:26;;;;;;;8.82;5.00;;;;;;;6.38;100.00;100865.75;5059599;28;20028;-82
2023/01/06 23:23:52;;;;;;;11.00;5.18;;;;;;;6.36;100.00;100870.28;5042264;28;20190;-81
2023/01/06 23:26:28;;;;;;;7.22;4.90;;;;;;;6.25;100.00;100862.84;5082922;28;20024;-81
2023/01/06 23:28:56;;;;;;;6.65;4.28;;;;;;;6.25;100.00;100862.03;5061525;28;20025;-80
2023/01/06 23:31:24;;;;;;;8.52;4.85;;;;;;;6.22;100.00;100863.75;5079073;28;20035;-80
2023/01/06 23:33:54;;;;;;;10.55;4.60;;;;;;;6.17;100.00;100854.97;5083947;28;20047;-82
2023/01/06 23:36:20;;;;;;;6.13;4.97;;;;;;;6.17;100.00;100858.63;5079251;28;20033;-81
2023/01/06 23:38:49;;;;;;;8.02;4.93;;;;;;;6.14;100.00;100853.81;5078254;28;20052;-82
2023/01/06 23:41:21;;;;;;;8.88;4.68;;;;;;;6.14;100.00;100870.06;5089653;28;20055;-85
2023/01/06 23:43:54;;;;;;;8.50;5.22;;;;;;;6.12;100.00;100867.69;5092914;28;20036;-77
2023/01/06 23:46:24;;;;;;;8.95;5.00;;;;;;;6.09;100.00;100874.22;5074370;28;20114;-79
2023/01/06 23:48:49;;;;;;;9.07;4.35;;;;;;;6.02;100.00;100870.81;5038063;28;20127;-82
2023/01/06 23:51:16;;;;;;;6.40;4.72;;;;;;;5.96;100.00;100870.56;5077965;28;20483;-77
2023/01/06 23:53:47;;;;;;;10.20;5.15;;;;;;;5.87;100.00;100863.94;5074586;28;20062;-79
2023/01/06 23:56:14;;;;;;;7.53;4.90;;;;;;;5.86;100.00;100871.66;5074411;28;20100;-78
2023/01/06 23:58:47;;;;;;;6.13;5.00;;;;;;;5.80;100.00;100871.38;5074435;28;20250;-77
